Time;durP1;ratioP1;P1;durP2;ratioP2;P2;SDS_P1;SDS_P2;PMS_P1;PMS_P2;Temp;Humidity;BMP_temperature;BMP_pressure;BME280_temperature;BME280_humidity;BME280_pressure;Samples;Min_cycle;Max_cycle;Signal;HPM_P1;HPM_P2
2021/03/05 00:02:18;;;;;;;;;;;4.00;99.90;;;;;;5015461;28;20012;-92
2021/03/05 00:04:46;;;;;;;;;;;4.10;99.90;;;;;;5015784;28;19913;-91
2021/03/05 00:07:18;;;;;;;;;;;4.00;99.90;;;;;;5016440;28;20354;-91
2021/03/05 00:09:49;;;;;;;;;;;4.00;99.90;;;;;;5018615;28;19921;-92
2021/03/05 00:12:20;;;;;;;;;;;4.00;99.90;;;;;;5017064;28;19909;-91
2021/03/05 00:14:52;;;;;;;;;;;4.00;99.90;;;;;;5016245;28;20020;-90
2021/03/05 00:17:21;;;;;;;;;;;3.90;99.90;;;;;;5016119;28;20004;-91
2021/03/05 00:19:56;;;;;;;;;;;3.90;99.90;;;;;;5016019;28;19924;-90
2021/03/05 00:22:32;;;;;;;;;;;3.90;99.90;;;;;;5013102;28;19910;-91
2021/03/05 00:25:06;;;;;;;;;;;3.80;99.90;;;;;;5016515;28;20325;-92
2021/03/05 00:27:38;;;;;;;;;;;3.70;99.90;;;;;;5014821;28;20028;-92
2021/03/05 00:30:07;;;;;;;;;;;3.70;99.90;;;;;;5014083;28;20378;-92
2021/03/05 00:32:43;;;;;;;;;;;3.60;99.90;;;;;;5014053;28;19963;-92
2021/03/05 00:35:17;;;;;;;;;;;3.60;99.90;;;;;;5016263;28;19914;-92
2021/03/05 00:37:47;;;;;;;;;;;3.60;99.90;;;;;;5015783;28;19917;-92
2021/03/05 00:40:22;;;;;;;;;;;3.70;99.90;;;;;;5019841;28;19909;-91
2021/03/05 00:42:53;;;;;;;;;;;3.70;99.90;;;;;;5016371;28;19924;-91
2021/03/05 00:45:21;;;;;;;;;;;3.70;99.90;;;;;;5017860;28;19910;-91
2021/03/05 00:47:50;;;;;;;;;;;3.70;99.90;;;;;;5016924;28;20361;-92
2021/03/05 00:50:19;;;;;;;;;;;3.70;99.90;;;;;;5016065;28;19920;-92
2021/03/05 00:52:51;;;;;;;;;;;3.60;99.90;;;;;;5015611;28;19910;-92
2021/03/05 00:55:28;;;;;;;;;;;3.70;99.90;;;;;;5016170;28;19909;-90
2021/03/05 00:57:54;;;;;;;;;;;3.60;99.90;;;;;;5018075;28;19920;-92
2021/03/05 01:00:35;;;;;;;;;;;3.50;99.90;;;;;;4956293;28;19910;-90
2021/03/05 01:03:00;;;;;;;;;;;3.40;99.90;;;;;;4940397;29;19911;-92
2021/03/05 01:05:34;;;;;;;;;;;3.20;99.90;;;;;;4952556;29;19942;-91
2021/03/05 01:08:06;;;;;;;;;;;3.10;99.90;;;;;;4943389;29;19914;-91
2021/03/05 01:10:46;;;;;;;;;;;2.90;99.90;;;;;;4943830;29;20425;-92
2021/03/05 01:13:12;;;;;;;;;;;2.80;99.90;;;;;;4943488;29;19915;-91
2021/03/05 01:15:42;;;;;;;;;;;2.60;99.90;;;;;;4943751;29;19918;-90
2021/03/05 01:18:13;;;;;;;;;;;2.50;99.90;;;;;;4943643;29;19918;-91
2021/03/05 01:20:43;;;;;;;;;;;2.40;99.90;;;;;;4943729;29;20474;-92
2021/03/05 01:23:20;;;;;;;;;;;2.40;99.90;;;;;;4959394;29;19910;-91
2021/03/05 01:25:49;;;;;;;;;;;2.20;99.90;;;;;;4944274;29;19911;-91
2021/03/05 01:28:15;;;;;;;;;;;2.10;99.90;;;;;;4958581;29;19930;-91
2021/03/05 01:30:41;;;;;;;;;;;2.00;99.90;;;;;;4969585;28;19920;-91
2021/03/05 01:33:12;;;;;;;;;;;2.00;99.90;;;;;;4999954;28;19914;-92
2021/03/05 01:35:47;;;;;;;;;;;1.90;99.90;;;;;;4999264;28;20306;-91
2021/03/05 01:38:15;;;;;;;;;;;1.80;99.90;;;;;;4998851;28;19917;-90
2021/03/05 01:41:01;;;;;;;;;;;1.80;99.90;;;;;;5000139;28;19910;-91
2021/03/05 01:43:31;;;;;;;;;;;1.80;99.90;;;;;;4999094;28;19973;-91
2021/03/05 01:45:56;;;;;;;;;;;1.70;99.90;;;;;;4977553;28;20410;-91
2021/03/05 01:48:22;;;;;;;;;;;1.70;99.90;;;;;;4982888;28;19917;-90
2021/03/05 01:51:14;;;;;;;;;;;1.70;99.90;;;;;;4999930;28;19918;-92
2021/03/05 01:53:44;;;;;;;;;;;1.50;99.90;;;;;;4982190;28;19916;-92
2021/03/05 01:56:20;;;;;;;;;;;1.50;99.90;;;;;;4982066;28;19910;-91
2021/03/05 01:58:52;;;;;;;;;;;1.40;99.90;;;;;;4982090;28;19913;-93
2021/03/05 02:01:22;;;;;;;;;;;1.40;99.90;;;;;;5006168;28;19973;-93
2021/03/05 02:03:53;;;;;;;;;;;1.30;99.90;;;;;;5017510;28;19909;-92
2021/03/05 02:06:32;;;;;;;;;;;1.30;99.90;;;;;;5018454;28;20290;-91
2021/03/05 02:09:01;;;;;;;;;;;1.20;99.90;;;;;;5017146;28;19918;-92
2021/03/05 02:11:36;;;;;;;;;;;1.20;99.90;;;;;;5018516;28;19909;-92
2021/03/05 02:14:07;;;;;;;;;;;1.10;99.90;;;;;;5017641;28;19914;-92
2021/03/05 02:16:45;;;;;;;;;;;1.00;99.90;;;;;;5017592;28;20384;-91
2021/03/05 02:19:32;;;;;;;;;;;0.90;99.90;;;;;;5017594;28;19910;-92
2021/03/05 02:22:20;;;;;;;;;;;0.90;99.90;;;;;;5017879;28;19913;-92
2021/03/05 02:25:18;;;;;;;;;;;0.90;99.90;;;;;;5018529;28;19916;-91
2021/03/05 02:28:12;;;;;;;;;;;0.90;99.90;;;;;;5018931;28;19913;-92
2021/03/05 02:30:56;;;;;;;;;;;0.80;99.90;;;;;;5017868;28;19913;-90
2021/03/05 02:33:42;;;;;;;;;;;0.70;99.90;;;;;;5017150;28;20473;-91
2021/03/05 02:36:09;;;;;;;;;;;0.70;99.90;;;;;;5019892;28;19909;-89
2021/03/05 02:38:36;;;;;;;;;;;0.70;99.90;;;;;;5015343;28;20294;-92
2021/03/05 02:41:13;;;;;;;;;;;0.70;99.90;;;;;;5018067;28;20422;-91
2021/03/05 02:43:40;;;;;;;;;;;0.70;99.90;;;;;;5014759;28;20289;-91
2021/03/05 02:46:18;;;;;;;;;;;0.70;99.90;;;;;;5016772;28;19957;-92
2021/03/05 02:48:47;;;;;;;;;;;0.70;99.90;;;;;;5016382;28;20016;-92
2021/03/05 02:51:16;;;;;;;;;;;0.80;99.90;;;;;;5017448;28;19913;-92
2021/03/05 02:53:53;;;;;;;;;;;0.70;99.90;;;;;;5016545;28;19910;-92
2021/03/05 02:56:24;;;;;;;;;;;0.70;99.90;;;;;;5015917;28;22988;-92
2021/03/05 02:58:54;;;;;;;;;;;0.60;99.90;;;;;;5017092;28;19917;-92
2021/03/05 03:01:26;;;;;;;;;;;0.60;99.90;;;;;;5009383;28;20290;-93
2021/03/05 03:04:10;;;;;;;;;;;0.60;99.90;;;;;;4977406;28;19914;-90
2021/03/05 03:06:47;;;;;;;;;;;0.50;99.90;;;;;;4960861;28;19910;-93
2021/03/05 03:09:23;;;;;;;;;;;0.50;99.90;;;;;;4977199;28;19918;-91
2021/03/05 03:11:51;;;;;;;;;;;0.50;99.90;;;;;;4961246;28;20016;-90
2021/03/05 03:14:17;;;;;;;;;;;0.50;99.90;;;;;;4971172;28;19960;-91
2021/03/05 03:16:45;;;;;;;;;;;0.40;99.90;;;;;;4976713;28;19910;-89
2021/03/05 03:19:13;;;;;;;;;;;0.40;99.90;;;;;;4977221;28;20145;-91
2021/03/05 03:21:42;;;;;;;;;;;0.30;99.90;;;;;;4976587;28;19910;-91
2021/03/05 03:24:16;;;;;;;;;;;0.30;99.90;;;;;;4971900;28;20038;-91
2021/03/05 03:26:42;;;;;;;;;;;0.30;99.90;;;;;;4974908;28;20410;-91
2021/03/05 03:29:11;;;;;;;;;;;0.30;99.90;;;;;;4970860;28;19921;-88
2021/03/05 03:31:40;;;;;;;;;;;0.20;99.90;;;;;;4976277;28;19922;-90
2021/03/05 03:34:09;;;;;;;;;;;0.20;99.90;;;;;;4980043;28;19910;-89
2021/03/05 03:36:39;;;;;;;;;;;0.20;99.90;;;;;;4992415;28;20000;-90
2021/03/05 03:39:08;;;;;;;;;;;0.10;99.90;;;;;;4996569;28;19944;-89
2021/03/05 03:41:40;;;;;;;;;;;0.10;99.90;;;;;;4996527;28;19914;-90
2021/03/05 03:44:09;;;;;;;;;;;0.10;99.90;;;;;;4995780;28;20334;-91
2021/03/05 03:46:59;;;;;;;;;;;0.00;99.90;;;;;;4995550;28;20329;-91
2021/03/05 03:49:50;;;;;;;;;;;0.00;99.90;;;;;;4996129;28;19945;-90
2021/03/05 03:52:24;;;;;;;;;;;-0.10;99.90;;;;;;4995761;28;19910;-89
2021/03/05 03:54:57;;;;;;;;;;;-0.10;99.90;;;;;;4996556;28;19906;-91
2021/03/05 03:57:28;;;;;;;;;;;-0.20;99.90;;;;;;4996781;28;19910;-90
2021/03/05 04:00:02;;;;;;;;;;;-0.20;99.90;;;;;;4993779;28;19913;-90
2021/03/05 04:02:32;;;;;;;;;;;-0.30;99.90;;;;;;4996419;28;19926;-90
2021/03/05 04:05:04;;;;;;;;;;;-0.40;99.90;;;;;;4992408;28;19910;-90
2021/03/05 04:07:35;;;;;;;;;;;-0.50;99.90;;;;;;4997603;28;19913;-90
2021/03/05 04:10:05;;;;;;;;;;;-0.50;99.90;;;;;;4996626;28;19925;-90
2021/03/05 04:12:34;;;;;;;;;;;-0.50;99.90;;;;;;4993305;28;19910;-91
2021/03/05 04:15:00;;;;;;;;;;;-0.50;99.90;;;;;;4997500;28;19910;-92
2021/03/05 04:17:31;;;;;;;;;;;-0.60;99.90;;;;;;4994171;28;19934;-91
2021/03/05 04:20:03;;;;;;;;;;;-0.60;99.90;;;;;;4980110;28;19945;-91
2021/03/05 04:22:33;;;;;;;;;;;-0.60;99.90;;;;;;4997152;28;19909;-93
2021/03/05 04:25:02;;;;;;;;;;;-0.60;99.90;;;;;;4996027;28;19909;-92
2021/03/05 04:27:36;;;;;;;;;;;-0.60;99.90;;;;;;4995413;28;19910;-90
2021/03/05 04:30:02;;;;;;;;;;;-0.60;99.90;;;;;;4996198;28;19918;-90
2021/03/05 04:32:28;;;;;;;;;;;-0.70;99.90;;;;;;4996585;28;20053;-91
2021/03/05 04:34:59;;;;;;;;;;;-0.60;99.90;;;;;;4996267;28;19910;-91
2021/03/05 04:37:33;;;;;;;;;;;-0.70;99.90;;;;;;4995764;28;19916;-91
2021/03/05 04:40:10;;;;;;;;;;;-0.60;99.90;;;;;;4999198;28;19917;-91
2021/03/05 04:42:36;;;;;;;;;;;-0.60;99.90;;;;;;4995397;28;19910;-91
2021/03/05 04:45:02;;;;;;;;;;;-0.60;99.90;;;;;;5000493;28;19910;-90
2021/03/05 04:47:34;;;;;;;;;;;-0.60;99.90;;;;;;5000115;28;19914;-91
2021/03/05 04:50:07;;;;;;;;;;;-0.70;99.90;;;;;;4983463;28;19918;-91
2021/03/05 04:52:38;;;;;;;;;;;-0.70;99.90;;;;;;5000034;28;20356;-91
2021/03/05 04:55:05;;;;;;;;;;;-0.60;99.90;;;;;;4994934;28;19920;-90
2021/03/05 04:57:37;;;;;;;;;;;-0.60;99.90;;;;;;4999058;28;20370;-92
2021/03/05 05:00:07;;;;;;;;;;;-0.60;99.90;;;;;;4998221;28;19965;-91
2021/03/05 05:02:33;;;;;;;;;;;-0.60;99.90;;;;;;5014723;28;19925;-91
2021/03/05 05:05:03;;;;;;;;;;;-0.60;99.90;;;;;;5018183;28;19924;-91
2021/03/05 05:07:33;;;;;;;;;;;-0.70;99.90;;;;;;5014491;28;19917;-91
2021/03/05 05:10:01;;;;;;;;;;;-0.70;99.90;;;;;;5014250;28;19922;-92
2021/03/05 05:12:30;;;;;;;;;;;-0.70;99.90;;;;;;5019226;28;19965;-91
2021/03/05 05:15:01;;;;;;;;;;;-0.70;99.90;;;;;;5018391;28;19973;-90
2021/03/05 05:17:30;;;;;;;;;;;-0.70;99.90;;;;;;5016563;28;20263;-90
2021/03/05 05:19:56;;;;;;;;;;;-0.80;99.90;;;;;;5017138;28;19909;-91
2021/03/05 05:22:30;;;;;;;;;;;-0.80;99.90;;;;;;5018410;28;19909;-92
2021/03/05 05:25:07;;;;;;;;;;;-0.80;99.90;;;;;;4995662;28;19954;-91
2021/03/05 05:27:33;;;;;;;;;;;-0.90;99.90;;;;;;4981859;28;20410;-90
2021/03/05 05:30:06;;;;;;;;;;;-0.90;99.90;;;;;;4995233;28;20036;-92
2021/03/05 05:32:32;;;;;;;;;;;-0.90;99.90;;;;;;4981015;28;19934;-92
2021/03/05 05:35:01;;;;;;;;;;;-0.90;99.90;;;;;;4997474;28;19910;-91
2021/03/05 05:37:26;;;;;;;;;;;-0.90;99.90;;;;;;4973544;28;19936;-92
2021/03/05 05:39:52;;;;;;;;;;;-0.90;99.90;;;;;;4995288;28;19913;-90
2021/03/05 05:42:23;;;;;;;;;;;-0.90;99.90;;;;;;4990657;28;19950;-92
2021/03/05 05:44:55;;;;;;;;;;;-1.00;99.90;;;;;;4997137;28;19917;-90
2021/03/05 05:47:30;;;;;;;;;;;-1.00;99.90;;;;;;4980765;28;19921;-91
2021/03/05 05:50:01;;;;;;;;;;;-1.00;99.90;;;;;;4993336;28;19924;-92
2021/03/05 05:52:29;;;;;;;;;;;-1.00;99.90;;;;;;4997299;28;19910;-90
2021/03/05 05:55:15;;;;;;;;;;;-1.00;99.90;;;;;;5000553;28;19916;-90
2021/03/05 05:57:50;;;;;;;;;;;-1.00;99.90;;;;;;5000252;28;19960;-91
2021/03/05 06:00:16;;;;;;;;;;;-1.00;99.90;;;;;;5015491;28;19916;-91
2021/03/05 06:02:46;;;;;;;;;;;-1.10;99.90;;;;;;5018576;28;19912;-90
2021/03/05 06:05:21;;;;;;;;;;;-1.10;99.90;;;;;;5017451;28;19932;-91
2021/03/05 06:07:54;;;;;;;;;;;-1.10;99.90;;;;;;5011416;28;19913;-90
2021/03/05 06:10:24;;;;;;;;;;;-1.10;99.90;;;;;;5016973;28;19914;-91
2021/03/05 06:12:57;;;;;;;;;;;-1.20;99.90;;;;;;5017689;28;19910;-90
2021/03/05 06:15:27;;;;;;;;;;;-1.10;99.90;;;;;;5020536;28;19910;-90
2021/03/05 06:17:55;;;;;;;;;;;-1.10;99.90;;;;;;5025454;28;19932;-90
2021/03/05 06:20:42;;;;;;;;;;;-1.10;99.90;;;;;;5043236;28;19935;-91
2021/03/05 06:23:22;;;;;;;;;;;-1.10;99.90;;;;;;5022770;28;19925;-90
2021/03/05 06:25:51;;;;;;;;;;;-1.10;99.90;;;;;;5028544;28;19914;-91
2021/03/05 06:28:19;;;;;;;;;;;-1.10;99.90;;;;;;5029620;28;19967;-91
2021/03/05 06:30:56;;;;;;;;;;;-1.10;99.90;;;;;;5039103;28;19923;-91
2021/03/05 06:33:27;;;;;;;;;;;-1.10;99.90;;;;;;5017423;28;19909;-91
2021/03/05 06:36:15;;;;;;;;;;;-1.10;99.90;;;;;;5017314;28;20345;-91
2021/03/05 06:38:54;;;;;;;;;;;-1.10;99.90;;;;;;5018223;28;19932;-92
2021/03/05 06:41:30;;;;;;;;;;;-1.00;99.90;;;;;;5020463;28;19916;-92
2021/03/05 06:44:28;;;;;;;;;;;-1.00;99.90;;;;;;5037942;28;19916;-92
2021/03/05 06:47:06;;;;;;;;;;;-1.00;99.90;;;;;;5020814;28;20019;-91
2021/03/05 06:49:37;;;;;;;;;;;-0.90;99.90;;;;;;5020071;28;19920;-91
2021/03/05 06:52:17;;;;;;;;;;;-0.90;99.90;;;;;;5022139;28;19935;-92
2021/03/05 06:55:04;;;;;;;;;;;-0.80;99.90;;;;;;5019537;28;19909;-93
2021/03/05 06:57:33;;;;;;;;;;;-0.70;99.90;;;;;;5019621;28;20068;-90
2021/03/05 07:00:01;;;;;;;;;;;-0.60;99.90;;;;;;5020605;28;19909;-91
2021/03/05 07:02:31;;;;;;;;;;;-0.50;99.90;;;;;;5009343;28;19936;-89
2021/03/05 07:05:02;;;;;;;;;;;-0.40;99.90;;;;;;5014432;28;20301;-89
2021/03/05 07:07:31;;;;;;;;;;;-0.20;99.90;;;;;;4975385;28;19921;-89
2021/03/05 07:10:00;;;;;;;;;;;-0.10;99.90;;;;;;4959986;28;19922;-91
2021/03/05 07:12:37;;;;;;;;;;;0.00;99.90;;;;;;4954228;28;19993;-92
2021/03/05 07:15:12;;;;;;;;;;;0.20;99.90;;;;;;4961197;28;19945;-92
2021/03/05 07:17:44;;;;;;;;;;;0.30;99.90;;;;;;4961702;28;19916;-92
2021/03/05 07:20:12;;;;;;;;;;;0.30;99.90;;;;;;4956959;28;20465;-92
2021/03/05 07:22:48;;;;;;;;;;;0.30;99.90;;;;;;4959933;28;19965;-93
2021/03/05 07:25:19;;;;;;;;;;;0.30;99.90;;;;;;4960306;28;20503;-91
2021/03/05 07:27:46;;;;;;;;;;;0.40;99.90;;;;;;4956043;28;19914;-91
2021/03/05 07:30:23;;;;;;;;;;;0.40;99.90;;;;;;4960127;28;19918;-92
2021/03/05 07:33:01;;;;;;;;;;;0.40;99.90;;;;;;4959611;28;19977;-92
2021/03/05 07:35:36;;;;;;;;;;;0.40;99.90;;;;;;4960874;28;19914;-90
2021/03/05 07:38:07;;;;;;;;;;;0.50;99.90;;;;;;4974396;28;20366;-93
2021/03/05 07:40:35;;;;;;;;;;;0.60;99.90;;;;;;4999583;28;19917;-93
2021/03/05 07:43:06;;;;;;;;;;;0.70;99.90;;;;;;5000988;28;19909;-92
2021/03/05 07:45:40;;;;;;;;;;;0.80;99.90;;;;;;4999664;28;19964;-91
2021/03/05 07:48:26;;;;;;;;;;;1.90;99.90;;;;;;4995131;28;20007;-91
2021/03/05 07:51:00;;;;;;;;;;;3.80;99.90;;;;;;4999364;28;19914;-91
2021/03/05 07:53:29;;;;;;;;;;;5.60;99.90;;;;;;4999619;28;19910;-91
2021/03/05 07:56:02;;;;;;;;;;;7.00;98.20;;;;;;4999270;28;19957;-91
2021/03/05 07:58:44;;;;;;;;;;;8.20;90.50;;;;;;5000926;28;19918;-91
2021/03/05 08:01:10;;;;;;;;;;;9.10;84.80;;;;;;5007477;28;20393;-92
2021/03/05 08:03:55;;;;;;;;;;;10.10;77.90;;;;;;5037776;28;20286;-92
2021/03/05 08:06:27;;;;;;;;;;;10.80;71.00;;;;;;5035478;28;19912;-92
2021/03/05 08:09:09;;;;;;;;;;;11.40;65.60;;;;;;5032942;28;19955;-92
2021/03/05 08:11:41;;;;;;;;;;;11.80;64.20;;;;;;5024268;28;20003;-91
2021/03/05 08:14:26;;;;;;;;;;;12.10;60.50;;;;;;5017514;28;19909;-92
2021/03/05 08:16:55;;;;;;;;;;;12.60;58.40;;;;;;5022441;28;19909;-92
2021/03/05 08:19:37;;;;;;;;;;;12.80;57.10;;;;;;5037578;28;20358;-92
2021/03/05 08:22:08;;;;;;;;;;;12.90;55.70;;;;;;5023475;28;19917;-92
2021/03/05 08:24:41;;;;;;;;;;;13.00;54.40;;;;;;5023778;28;19909;-90
2021/03/05 08:27:15;;;;;;;;;;;13.10;53.60;;;;;;5020549;28;20025;-92
2021/03/05 08:29:50;;;;;;;;;;;13.20;53.40;;;;;;5023649;28;19913;-92
2021/03/05 08:32:46;;;;;;;;;;;13.60;53.30;;;;;;5040431;28;19971;-91
2021/03/05 08:35:15;;;;;;;;;;;13.90;51.90;;;;;;5023946;28;19916;-91
2021/03/05 08:37:59;;;;;;;;;;;14.00;50.20;;;;;;5023520;28;19909;-90
2021/03/05 08:40:37;;;;;;;;;;;14.00;49.70;;;;;;5023181;28;19913;-90
2021/03/05 08:43:21;;;;;;;;;;;14.10;49.30;;;;;;5023149;28;19980;-90
2021/03/05 08:45:48;;;;;;;;;;;14.10;48.40;;;;;;5022905;28;19991;-91
2021/03/05 08:48:34;;;;;;;;;;;14.10;48.10;;;;;;5022146;28;19913;-91
2021/03/05 08:51:20;;;;;;;;;;;14.20;48.20;;;;;;5019410;28;19976;-88
2021/03/05 08:53:55;;;;;;;;;;;14.40;46.30;;;;;;5013761;28;19920;-89
2021/03/05 08:56:28;;;;;;;;;;;14.30;45.70;;;;;;5014994;28;20003;-89
2021/03/05 08:59:09;;;;;;;;;;;14.30;45.40;;;;;;5020817;28;19913;-88
2021/03/05 09:01:40;;;;;;;;;;;14.50;45.90;;;;;;5020598;28;19996;-89
2021/03/05 09:04:14;;;;;;;;;;;14.80;44.70;;;;;;5020738;28;20007;-90
2021/03/05 09:07:09;;;;;;;;;;;15.10;43.90;;;;;;5021589;28;19909;-90
2021/03/05 09:09:38;;;;;;;;;;;15.20;43.50;;;;;;5020382;28;19936;-91
2021/03/05 09:12:11;;;;;;;;;;;15.20;43.30;;;;;;5022449;28;19932;-91
2021/03/05 09:15:03;;;;;;;;;;;15.40;42.60;;;;;;5038198;28;19910;-91
2021/03/05 09:17:30;;;;;;;;;;;15.80;41.50;;;;;;5025476;28;19915;-91
2021/03/05 09:20:12;;;;;;;;;;;16.10;41.10;;;;;;4959579;29;19910;-90
2021/03/05 09:22:41;;;;;;;;;;;16.20;40.40;;;;;;4959224;29;19910;-89
2021/03/05 09:25:13;;;;;;;;;;;16.40;40.10;;;;;;4957004;28;19946;-90
2021/03/05 09:27:56;;;;;;;;;;;16.20;39.20;;;;;;4958429;29;19917;-89
2021/03/05 09:30:26;;;;;;;;;;;16.20;39.60;;;;;;4942646;29;19918;-92
2021/03/05 09:32:55;;;;;;;;;;;16.20;39.20;;;;;;4943166;29;19918;-89
2021/03/05 09:35:25;;;;;;;;;;;16.30;39.30;;;;;;4942910;29;19921;-92
2021/03/05 09:37:51;;;;;;;;;;;16.50;39.00;;;;;;4941348;28;19910;-89
2021/03/05 09:40:20;;;;;;;;;;;16.60;38.50;;;;;;4957912;28;19916;-89
2021/03/05 09:42:50;;;;;;;;;;;16.80;38.20;;;;;;4942184;29;19910;-90
2021/03/05 09:45:33;;;;;;;;;;;17.00;37.20;;;;;;4941749;29;19914;-89
2021/03/05 09:48:01;;;;;;;;;;;17.40;36.60;;;;;;4957879;29;19910;-90
2021/03/05 09:50:31;;;;;;;;;;;17.80;36.10;;;;;;4984186;28;19987;-90
2021/03/05 09:53:17;;;;;;;;;;;17.90;36.50;;;;;;5038123;28;19909;-89
2021/03/05 09:55:49;;;;;;;;;;;18.30;35.60;;;;;;5020949;28;19984;-89
2021/03/05 09:58:18;;;;;;;;;;;18.20;34.60;;;;;;5020309;28;19920;-90
2021/03/05 10:00:52;;;;;;;;;;;17.90;35.00;;;;;;5019637;28;19919;-91
2021/03/05 10:03:27;;;;;;;;;;;17.80;33.60;;;;;;5006785;28;19988;-90
2021/03/05 10:06:14;;;;;;;;;;;17.60;34.50;;;;;;5006381;28;19913;-89
2021/03/05 10:08:45;;;;;;;;;;;17.40;34.50;;;;;;4981313;28;20005;-90
2021/03/05 10:11:12;;;;;;;;;;;17.40;34.00;;;;;;4980998;28;19914;-91
2021/03/05 10:13:44;;;;;;;;;;;17.40;34.60;;;;;;4994548;28;20005;-90
2021/03/05 10:16:14;;;;;;;;;;;17.50;35.00;;;;;;4977336;28;20418;-90
2021/03/05 10:18:52;;;;;;;;;;;17.70;33.60;;;;;;4980538;28;19909;-90
2021/03/05 10:21:22;;;;;;;;;;;17.80;33.40;;;;;;4964179;28;19964;-91
2021/03/05 10:24:16;;;;;;;;;;;17.80;33.10;;;;;;4996619;28;19914;-91
2021/03/05 10:29:45;;;;;;;;;;;18.00;33.90;;;;;;4999334;28;20406;-90
2021/03/05 10:32:28;;;;;;;;;;;18.10;31.40;;;;;;4980123;28;20009;-91
2021/03/05 10:35:00;;;;;;;;;;;17.90;32.30;;;;;;4975893;28;19953;-90
2021/03/05 10:37:28;;;;;;;;;;;17.90;32.50;;;;;;4980235;28;20342;-90
2021/03/05 10:39:56;;;;;;;;;;;18.10;33.00;;;;;;4991791;28;20444;-90
2021/03/05 10:42:25;;;;;;;;;;;18.40;30.90;;;;;;4997213;28;19913;-91
2021/03/05 10:45:02;;;;;;;;;;;18.60;30.20;;;;;;4980092;28;19916;-89
2021/03/05 10:47:33;;;;;;;;;;;18.60;29.60;;;;;;4979675;28;19910;-91
2021/03/05 10:50:03;;;;;;;;;;;18.20;29.70;;;;;;4956489;28;19943;-91
2021/03/05 10:52:31;;;;;;;;;;;18.00;29.60;;;;;;4940673;29;19994;-91
2021/03/05 10:54:57;;;;;;;;;;;17.90;29.90;;;;;;4917568;29;19919;-91
2021/03/05 10:57:25;;;;;;;;;;;17.90;29.80;;;;;;4917622;29;19911;-91
2021/03/05 10:59:53;;;;;;;;;;;17.80;29.90;;;;;;4916170;29;20383;-91
2021/03/05 11:02:19;;;;;;;;;;;18.00;29.40;;;;;;4924932;29;19922;-91
2021/03/05 11:04:45;;;;;;;;;;;17.90;29.90;;;;;;4935900;29;19919;-91
2021/03/05 11:07:21;;;;;;;;;;;18.00;29.50;;;;;;4936338;29;19964;-90
2021/03/05 11:09:49;;;;;;;;;;;18.10;30.00;;;;;;4937074;29;19923;-91
2021/03/05 11:12:24;;;;;;;;;;;18.40;29.60;;;;;;4934043;29;19915;-89
2021/03/05 11:14:52;;;;;;;;;;;18.80;29.30;;;;;;4935357;29;19911;-90
2021/03/05 11:17:27;;;;;;;;;;;18.90;29.40;;;;;;4991953;28;20028;-91
2021/03/05 11:20:00;;;;;;;;;;;18.90;28.90;;;;;;5021896;28;19910;-91
2021/03/05 11:22:26;;;;;;;;;;;18.90;28.40;;;;;;5033815;28;19920;-92
2021/03/05 11:24:55;;;;;;;;;;;19.00;27.60;;;;;;5024407;28;20047;-91
2021/03/05 11:27:23;;;;;;;;;;;18.90;26.60;;;;;;5003818;28;19910;-91
2021/03/05 11:29:51;;;;;;;;;;;18.80;26.30;;;;;;5012847;28;20034;-90
2021/03/05 11:32:16;;;;;;;;;;;18.50;26.20;;;;;;4997362;28;19920;-89
2021/03/05 11:34:47;;;;;;;;;;;18.30;26.60;;;;;;4996486;28;20017;-90
2021/03/05 11:37:16;;;;;;;;;;;18.30;27.00;;;;;;5010430;28;19976;-89
2021/03/05 11:39:44;;;;;;;;;;;18.50;27.30;;;;;;4982757;28;20375;-90
2021/03/05 11:42:18;;;;;;;;;;;18.40;27.40;;;;;;4988582;28;19919;-88
2021/03/05 11:44:47;;;;;;;;;;;18.10;27.90;;;;;;5001062;28;19914;-89
2021/03/05 11:47:24;;;;;;;;;;;;;;;;;;;;;
2021/03/05 11:49:54;;;;;;;;;;;17.80;27.10;;;;;;5012733;28;20394;-90
2021/03/05 11:52:23;;;;;;;;;;;17.70;27.90;;;;;;4998951;28;19916;-90
2021/03/05 11:54:56;;;;;;;;;;;18.00;27.60;;;;;;4982451;28;19910;-91
2021/03/05 11:57:29;;;;;;;;;;;17.90;28.00;;;;;;4968593;28;20008;-90
2021/03/05 12:00:00;;;;;;;;;;;17.90;27.60;;;;;;4975457;28;20391;-90
2021/03/05 12:02:26;;;;;;;;;;;18.00;27.80;;;;;;4975713;28;20367;-90
2021/03/05 12:05:02;;;;;;;;;;;18.10;28.30;;;;;;4973792;28;19914;-91
2021/03/05 12:07:28;;;;;;;;;;;18.40;27.90;;;;;;4959968;28;19949;-91
2021/03/05 12:10:00;;;;;;;;;;;18.70;28.10;;;;;;4971714;28;19922;-89
2021/03/05 12:12:29;;;;;;;;;;;18.90;28.10;;;;;;4950404;28;20006;-88
2021/03/05 12:14:54;;;;;;;;;;;18.60;28.30;;;;;;4958649;28;19985;-89
2021/03/05 12:17:23;;;;;;;;;;;18.60;28.30;;;;;;4957885;28;19910;-89
2021/03/05 12:19:58;;;;;;;;;;;18.50;28.40;;;;;;4973438;28;20342;-89
2021/03/05 12:22:30;;;;;;;;;;;18.60;28.30;;;;;;4957843;28;19933;-90
2021/03/05 12:25:16;;;;;;;;;;;18.50;28.50;;;;;;4951686;28;20292;-90
2021/03/05 12:27:41;;;;;;;;;;;18.70;28.70;;;;;;4942955;28;19910;-89
2021/03/05 12:30:11;;;;;;;;;;;18.80;28.90;;;;;;4957981;28;19973;-90
2021/03/05 12:33:00;;;;;;;;;;;18.60;28.50;;;;;;4959575;28;19973;-92
2021/03/05 12:35:39;;;;;;;;;;;18.50;29.00;;;;;;4940883;28;19918;-90
2021/03/05 12:38:10;;;;;;;;;;;18.30;29.30;;;;;;4959602;28;19921;-90
2021/03/05 12:40:38;;;;;;;;;;;18.40;28.60;;;;;;4960788;28;19941;-90
2021/03/05 12:43:08;;;;;;;;;;;18.50;27.90;;;;;;4985096;28;19909;-90
2021/03/05 12:45:37;;;;;;;;;;;18.30;27.90;;;;;;5007512;28;19917;-90
2021/03/05 12:48:05;;;;;;;;;;;18.20;28.20;;;;;;5008439;28;20057;-89
2021/03/05 12:50:31;;;;;;;;;;;18.20;28.20;;;;;;4982540;28;19918;-91
2021/03/05 12:52:58;;;;;;;;;;;18.30;28.20;;;;;;4964105;28;19945;-90
2021/03/05 12:55:24;;;;;;;;;;;18.30;28.20;;;;;;4978201;28;19956;-89
2021/03/05 12:57:55;;;;;;;;;;;18.20;28.30;;;;;;4977601;28;19917;-89
2021/03/05 13:00:23;;;;;;;;;;;18.00;30.00;;;;;;4964337;28;20012;-88
2021/03/05 13:02:50;;;;;;;;;;;18.20;29.50;;;;;;4959592;28;19925;-91
2021/03/05 13:05:19;;;;;;;;;;;18.20;28.70;;;;;;4977327;28;19914;-89
2021/03/05 13:07:47;;;;;;;;;;;18.00;29.00;;;;;;4977797;28;19953;-90
2021/03/05 13:10:21;;;;;;;;;;;17.90;29.60;;;;;;4978242;28;20276;-89
2021/03/05 13:12:47;;;;;;;;;;;17.90;30.60;;;;;;4975673;28;19917;-89
2021/03/05 13:15:13;;;;;;;;;;;18.10;30.00;;;;;;4974561;28;19918;-90
2021/03/05 13:17:43;;;;;;;;;;;18.10;30.00;;;;;;4977647;28;19946;-89
2021/03/05 13:20:15;;;;;;;;;;;18.10;29.80;;;;;;4977088;28;19911;-89
2021/03/05 13:22:41;;;;;;;;;;;18.30;30.00;;;;;;4982655;28;19921;-90
2021/03/05 13:25:07;;;;;;;;;;;18.20;30.00;;;;;;4996985;28;19918;-89
2021/03/05 13:27:41;;;;;;;;;;;18.10;29.40;;;;;;4999185;28;19917;-88
2021/03/05 13:30:30;;;;;;;;;;;18.00;30.00;;;;;;4997522;28;19918;-88
2021/03/05 13:33:01;;;;;;;;;;;17.90;29.80;;;;;;4998546;28;19909;-88
2021/03/05 13:35:31;;;;;;;;;;;17.80;31.70;;;;;;4996962;28;19977;-89
2021/03/05 13:37:58;;;;;;;;;;;18.00;32.30;;;;;;4997699;28;20363;-88
2021/03/05 13:40:27;;;;;;;;;;;18.10;29.90;;;;;;4980327;28;19917;-88
2021/03/05 13:43:03;;;;;;;;;;;18.00;30.90;;;;;;4978511;28;20290;-87
2021/03/05 13:45:31;;;;;;;;;;;17.90;30.60;;;;;;4990892;28;19914;-89
2021/03/05 13:48:01;;;;;;;;;;;17.60;31.00;;;;;;4992232;28;19910;-88
2021/03/05 13:50:29;;;;;;;;;;;17.40;32.10;;;;;;4978363;28;19924;-89
2021/03/05 13:53:20;;;;;;;;;;;17.30;31.50;;;;;;4975723;28;19910;-88
2021/03/05 13:55:45;;;;;;;;;;;17.20;30.80;;;;;;4975831;28;19914;-89
2021/03/05 13:58:13;;;;;;;;;;;17.20;31.10;;;;;;4979213;28;19977;-87
2021/03/05 14:00:42;;;;;;;;;;;17.20;31.60;;;;;;4992989;28;20061;-88
2021/03/05 14:03:14;;;;;;;;;;;17.40;32.80;;;;;;4987494;28;19921;-88
2021/03/05 14:05:42;;;;;;;;;;;17.30;31.70;;;;;;4994624;28;19988;-88
2021/03/05 14:08:12;;;;;;;;;;;17.20;32.90;;;;;;4991200;28;19985;-89
2021/03/05 14:10:49;;;;;;;;;;;17.10;31.90;;;;;;4994830;28;19964;-89
2021/03/05 14:13:25;;;;;;;;;;;17.00;32.30;;;;;;4997490;28;19952;-89
2021/03/05 14:15:54;;;;;;;;;;;17.10;33.30;;;;;;5016139;28;20003;-88
2021/03/05 14:18:27;;;;;;;;;;;17.20;34.90;;;;;;5015499;28;19914;-89
2021/03/05 14:20:56;;;;;;;;;;;17.50;33.80;;;;;;5016861;28;19910;-89
2021/03/05 14:23:30;;;;;;;;;;;17.50;33.30;;;;;;5016176;28;19917;-88
2021/03/05 14:26:02;;;;;;;;;;;17.30;31.90;;;;;;5016352;28;19910;-90
2021/03/05 14:28:35;;;;;;;;;;;17.00;31.90;;;;;;5014656;28;19965;-89
2021/03/05 14:31:02;;;;;;;;;;;16.70;33.40;;;;;;5014817;28;21374;-89
2021/03/05 14:33:31;;;;;;;;;;;16.60;33.20;;;;;;4995108;28;20002;-89
2021/03/05 14:36:14;;;;;;;;;;;16.40;33.40;;;;;;4995538;28;19918;-88
2021/03/05 14:38:46;;;;;;;;;;;16.10;33.90;;;;;;4994776;28;20004;-88
2021/03/05 14:41:15;;;;;;;;;;;16.00;35.70;;;;;;4990614;28;19910;-88
2021/03/05 14:43:58;;;;;;;;;;;16.00;35.50;;;;;;4994554;28;19997;-89
2021/03/05 14:46:23;;;;;;;;;;;15.80;35.50;;;;;;4956400;29;19914;-89
2021/03/05 14:48:51;;;;;;;;;;;15.70;37.10;;;;;;4934970;29;20009;-88
2021/03/05 14:51:20;;;;;;;;;;;15.80;37.80;;;;;;4935264;29;19914;-88
2021/03/05 14:53:47;;;;;;;;;;;15.90;35.40;;;;;;4939866;29;19962;-88
2021/03/05 14:56:21;;;;;;;;;;;15.70;34.60;;;;;;4939670;29;19918;-88